sensor_id;sensor_type;location;lat;lon;timestamp;pressure;altitude;pressure_sealevel;temperature;humidity
65157;BME280;52745;49.794;18.258;2023-04-27T00:00:47;-16104.22;;;6.25;63.94
65157;BME280;52745;49.794;18.258;2023-04-27T00:03:16;-16101.91;;;6.16;65.01
65157;BME280;52745;49.794;18.258;2023-04-27T00:05:42;-16100.25;;;6.10;66.23
65157;BME280;52745;49.794;18.258;2023-04-27T00:08:09;-16099.28;;;6.06;65.49
65157;BME280;52745;49.794;18.258;2023-04-27T00:10:36;-16098.34;;;6.03;65.58
65157;BME280;52745;49.794;18.258;2023-04-27T00:13:03;-16096.97;;;5.97;66.58
65157;BME280;52745;49.794;18.258;2023-04-27T00:15:29;-16092.06;;;5.79;66.65
65157;BME280;52745;49.794;18.258;2023-04-27T00:17:56;-16090.81;;;5.74;66.91
65157;BME280;52745;49.794;18.258;2023-04-27T00:20:23;-16089.03;;;5.68;67.83
65157;BME280;52745;49.794;18.258;2023-04-27T00:22:50;-16087.13;;;5.60;68.84
65157;BME280;52745;49.794;18.258;2023-04-27T00:25:17;-16085.63;;;5.55;69.34
65157;BME280;52745;49.794;18.258;2023-04-27T00:27:43;-16082.34;;;5.43;69.08
65157;BME280;52745;49.794;18.258;2023-04-27T00:30:10;-16079.88;;;5.33;70.08
65157;BME280;52745;49.794;18.258;2023-04-27T00:32:37;-16078.38;;;5.28;69.93
65157;BME280;52745;49.794;18.258;2023-04-27T00:35:04;-16076.47;;;5.21;70.04
65157;BME280;52745;49.794;18.258;2023-04-27T00:37:31;-16074.56;;;5.13;69.83
65157;BME280;52745;49.794;18.258;2023-04-27T00:39:57;-16073.59;;;5.10;69.95
65157;BME280;52745;49.794;18.258;2023-04-27T00:42:24;-16073.59;;;5.10;69.79
65157;BME280;52745;49.794;18.258;2023-04-27T00:44:51;-16072.91;;;5.07;69.56
65157;BME280;52745;49.794;18.258;2023-04-27T00:47:18;-16071.41;;;5.02;70.42
65157;BME280;52745;49.794;18.258;2023-04-27T00:49:44;-16071.41;;;5.02;71.16
65157;BME280;52745;49.794;18.258;2023-04-27T00:52:11;-16071.00;;;5.00;71.32
65157;BME280;52745;49.794;18.258;2023-04-27T00:54:38;-16068.81;;;4.92;71.98
65157;BME280;52745;49.794;18.258;2023-04-27T00:57:05;-16070.31;;;4.97;71.70
65157;BME280;52745;49.794;18.258;2023-04-27T00:59:31;-16066.88;;;4.85;71.77
65157;BME280;52745;49.794;18.258;2023-04-27T01:01:58;-16066.63;;;4.84;72.30
65157;BME280;52745;49.794;18.258;2023-04-27T01:04:25;-16065.81;;;4.81;72.18
65157;BME280;52745;49.794;18.258;2023-04-27T01:06:52;-16063.63;;;4.72;72.30
65157;BME280;52745;49.794;18.258;2023-04-27T01:09:19;-16063.47;;;4.72;72.64
65157;BME280;52745;49.794;18.258;2023-04-27T01:11:49;-16062.50;;;4.68;72.78
65157;BME280;52745;49.794;18.258;2023-04-27T01:14:16;-16061.84;;;4.66;73.11
65157;BME280;52745;49.794;18.258;2023-04-27T01:16:43;-16061.56;;;4.65;73.11
65157;BME280;52745;49.794;18.258;2023-04-27T01:19:11;-16060.75;;;4.62;73.13
65157;BME280;52745;49.794;18.258;2023-04-27T01:21:38;-16060.06;;;4.59;72.87
65157;BME280;52745;49.794;18.258;2023-04-27T01:24:05;-16059.50;;;4.57;74.29
65157;BME280;52745;49.794;18.258;2023-04-27T01:26:32;-16060.88;;;4.62;73.77
65157;BME280;52745;49.794;18.258;2023-04-27T01:28:59;-16060.59;;;4.61;73.09
65157;BME280;52745;49.794;18.258;2023-04-27T01:31:26;-16063.06;;;4.70;72.96
65157;BME280;52745;49.794;18.258;2023-04-27T01:33:54;-16063.88;;;4.73;73.66
65157;BME280;52745;49.794;18.258;2023-04-27T01:36:20;-16064.56;;;4.76;73.24
65157;BME280;52745;49.794;18.258;2023-04-27T01:38:48;-16066.34;;;4.83;72.38
65157;BME280;52745;49.794;18.258;2023-04-27T01:41:15;-16068.53;;;4.91;72.16
65157;BME280;52745;49.794;18.258;2023-04-27T01:43:42;-16068.41;;;4.90;72.00
65157;BME280;52745;49.794;18.258;2023-04-27T01:46:41;-16070.03;;;4.96;71.83
65157;BME280;52745;49.794;18.258;2023-04-27T01:49:11;-16071.28;;;5.01;71.45
65157;BME280;52745;49.794;18.258;2023-04-27T01:51:37;-16071.69;;;5.03;71.64
65157;BME280;52745;49.794;18.258;2023-04-27T01:54:04;-16072.78;;;5.07;71.30
65157;BME280;52745;49.794;18.258;2023-04-27T01:56:31;-16072.22;;;5.05;71.52
65157;BME280;52745;49.794;18.258;2023-04-27T01:58:58;-16073.47;;;5.09;71.99
65157;BME280;52745;49.794;18.258;2023-04-27T02:01:25;-16075.09;;;5.15;72.05
65157;BME280;52745;49.794;18.258;2023-04-27T02:03:52;-16075.38;;;5.16;72.17
65157;BME280;52745;49.794;18.258;2023-04-27T02:06:18;-16074.28;;;5.12;72.25
65157;BME280;52745;49.794;18.258;2023-04-27T02:08:46;-16073.47;;;5.09;72.25
65157;BME280;52745;49.794;18.258;2023-04-27T02:11:13;-16074.97;;;5.15;72.23
65157;BME280;52745;49.794;18.258;2023-04-27T02:13:40;-16076.19;;;5.19;72.63
65157;BME280;52745;49.794;18.258;2023-04-27T02:16:07;-16075.66;;;5.17;72.54
65157;BME280;52745;49.794;18.258;2023-04-27T02:18:38;-16076.47;;;5.21;72.74
65157;BME280;52745;49.794;18.258;2023-04-27T02:21:09;-16075.66;;;5.17;72.80
65157;BME280;52745;49.794;18.258;2023-04-27T02:23:44;-16077.84;;;5.26;72.76
65157;BME280;52745;49.794;18.258;2023-04-27T02:26:16;-16076.47;;;5.21;73.25
65157;BME280;52745;49.794;18.258;2023-04-27T02:29:00;-16076.47;;;5.21;73.65
65157;BME280;52745;49.794;18.258;2023-04-27T02:31:43;-16076.06;;;5.19;74.19
65157;BME280;52745;49.794;18.258;2023-04-27T02:34:13;-16075.38;;;5.16;74.30
65157;BME280;52745;49.794;18.258;2023-04-27T02:36:40;-16076.75;;;5.22;74.26
65157;BME280;52745;49.794;18.258;2023-04-27T02:39:09;-16078.94;;;5.30;74.21
65157;BME280;52745;49.794;18.258;2023-04-27T02:41:38;-16076.75;;;5.22;75.22
65157;BME280;52745;49.794;18.258;2023-04-27T02:44:05;-16076.59;;;5.21;75.64
65157;BME280;52745;49.794;18.258;2023-04-27T02:46:32;-16076.19;;;5.19;75.89
65157;BME280;52745;49.794;18.258;2023-04-27T02:49:00;-16076.47;;;5.21;75.83
65157;BME280;52745;49.794;18.258;2023-04-27T02:51:27;-16075.91;;;5.18;76.47
65157;BME280;52745;49.794;18.258;2023-04-27T02:53:53;-16074.28;;;5.12;76.36
65157;BME280;52745;49.794;18.258;2023-04-27T02:56:20;-16073.88;;;5.11;76.81
65157;BME280;52745;49.794;18.258;2023-04-27T02:58:47;-16074.00;;;5.11;76.86
65157;BME280;52745;49.794;18.258;2023-04-27T03:01:14;-16074.00;;;5.11;76.82
65157;BME280;52745;49.794;18.258;2023-04-27T03:03:46;-16074.28;;;5.12;76.31
65157;BME280;52745;49.794;18.258;2023-04-27T03:06:13;-16073.03;;;5.08;76.42
65157;BME280;52745;49.794;18.258;2023-04-27T03:08:40;-16073.19;;;5.08;76.49
65157;BME280;52745;49.794;18.258;2023-04-27T03:11:06;-16071.81;;;5.03;77.48
65157;BME280;52745;49.794;18.258;2023-04-27T03:13:36;-16068.94;;;4.92;77.53
65157;BME280;52745;49.794;18.258;2023-04-27T03:16:08;-16066.63;;;4.84;77.76
65157;BME280;52745;49.794;18.258;2023-04-27T03:18:36;-16067.16;;;4.86;78.12
65157;BME280;52745;49.794;18.258;2023-04-27T03:21:10;-16068.13;;;4.89;78.29
65157;BME280;52745;49.794;18.258;2023-04-27T03:23:37;-16069.09;;;4.93;78.38
65157;BME280;52745;49.794;18.258;2023-04-27T03:26:08;-16070.31;;;4.97;78.29
65157;BME280;52745;49.794;18.258;2023-04-27T03:28:36;-16068.25;;;4.90;78.30
65157;BME280;52745;49.794;18.258;2023-04-27T03:31:07;-16067.97;;;4.89;78.48
65157;BME280;52745;49.794;18.258;2023-04-27T03:33:34;-16066.75;;;4.84;79.24
65157;BME280;52745;49.794;18.258;2023-04-27T03:36:02;-16064.97;;;4.77;78.70
65157;BME280;52745;49.794;18.258;2023-04-27T03:38:30;-16065.81;;;4.81;78.47
65157;BME280;52745;49.794;18.258;2023-04-27T03:40:57;-16065.25;;;4.79;78.53
65157;BME280;52745;49.794;18.258;2023-04-27T03:43:25;-16062.94;;;4.70;78.84
65157;BME280;52745;49.794;18.258;2023-04-27T03:45:52;-16064.44;;;4.75;78.40
65157;BME280;52745;49.794;18.258;2023-04-27T03:48:19;-16062.50;;;4.68;78.41
65157;BME280;52745;49.794;18.258;2023-04-27T03:50:47;-16063.19;;;4.71;78.75
65157;BME280;52745;49.794;18.258;2023-04-27T03:53:15;-16064.56;;;4.76;78.77
65157;BME280;52745;49.794;18.258;2023-04-27T03:55:43;-16065.81;;;4.81;78.63
65157;BME280;52745;49.794;18.258;2023-04-27T03:58:11;-16067.31;;;4.86;78.44
65157;BME280;52745;49.794;18.258;2023-04-27T04:00:46;-16068.94;;;4.92;78.37
65157;BME280;52745;49.794;18.258;2023-04-27T04:03:14;-16067.44;;;4.87;78.65
65157;BME280;52745;49.794;18.258;2023-04-27T04:05:43;-16068.13;;;4.89;78.30
65157;BME280;52745;49.794;18.258;2023-04-27T04:08:12;-16065.66;;;4.80;78.54
65157;BME280;52745;49.794;18.258;2023-04-27T04:10:39;-16065.25;;;4.79;78.98
65157;BME280;52745;49.794;18.258;2023-04-27T04:13:06;-16066.47;;;4.83;78.65
65157;BME280;52745;49.794;18.258;2023-04-27T04:15:33;-16066.75;;;4.84;78.54
65157;BME280;52745;49.794;18.258;2023-04-27T04:18:00;-16067.84;;;4.88;78.22
65157;BME280;52745;49.794;18.258;2023-04-27T04:20:26;-16066.06;;;4.82;78.04
65157;BME280;52745;49.794;18.258;2023-04-27T04:22:54;-16066.63;;;4.84;78.10
65157;BME280;52745;49.794;18.258;2023-04-27T04:25:21;-16060.59;;;4.61;78.94
65157;BME280;52745;49.794;18.258;2023-04-27T04:27:47;-16061.69;;;4.65;79.23
65157;BME280;52745;49.794;18.258;2023-04-27T04:30:14;-16063.47;;;4.72;79.65
65157;BME280;52745;49.794;18.258;2023-04-27T04:32:42;-16063.34;;;4.71;79.15
65157;BME280;52745;49.794;18.258;2023-04-27T04:35:10;-16066.34;;;4.83;78.37
65157;BME280;52745;49.794;18.258;2023-04-27T04:37:37;-16066.75;;;4.84;78.52
65157;BME280;52745;49.794;18.258;2023-04-27T04:40:05;-16069.50;;;4.94;77.92
65157;BME280;52745;49.794;18.258;2023-04-27T04:42:35;-16071.94;;;5.04;77.37
65157;BME280;52745;49.794;18.258;2023-04-27T04:45:03;-16070.59;;;4.98;77.89
65157;BME280;52745;49.794;18.258;2023-04-27T04:47:30;-16071.69;;;5.03;77.83
65157;BME280;52745;49.794;18.258;2023-04-27T04:49:57;-16075.38;;;5.16;77.20
65157;BME280;52745;49.794;18.258;2023-04-27T04:52:24;-16077.28;;;5.24;76.64
65157;BME280;52745;49.794;18.258;2023-04-27T04:54:51;-16078.78;;;5.29;75.90
65157;BME280;52745;49.794;18.258;2023-04-27T04:57:18;-16079.19;;;5.31;74.83
65157;BME280;52745;49.794;18.258;2023-04-27T04:59:45;-16085.75;;;5.55;74.66
65157;BME280;52745;49.794;18.258;2023-04-27T05:02:12;-16088.63;;;5.66;74.26
65157;BME280;52745;49.794;18.258;2023-04-27T05:04:38;-16090.28;;;5.72;72.52
65157;BME280;52745;49.794;18.258;2023-04-27T05:07:05;-16085.91;;;5.56;74.63
65157;BME280;52745;49.794;18.258;2023-04-27T05:09:31;-16087.81;;;5.63;73.55
65157;BME280;52745;49.794;18.258;2023-04-27T05:12:00;-16090.97;;;5.75;72.83
65157;BME280;52745;49.794;18.258;2023-04-27T05:14:27;-16092.06;;;5.79;72.19
65157;BME280;52745;49.794;18.258;2023-04-27T05:16:53;-16091.09;;;5.75;72.21
65157;BME280;52745;49.794;18.258;2023-04-27T05:19:20;-16089.59;;;5.70;72.02
65157;BME280;52745;49.794;18.258;2023-04-27T05:21:47;-16092.59;;;5.81;71.73
65157;BME280;52745;49.794;18.258;2023-04-27T05:24:13;-16091.09;;;5.75;71.99
65157;BME280;52745;49.794;18.258;2023-04-27T05:26:43;-16090.69;;;5.74;72.08
65157;BME280;52745;49.794;18.258;2023-04-27T05:29:10;-16093.56;;;5.85;72.38
65157;BME280;52745;49.794;18.258;2023-04-27T05:31:37;-16097.38;;;5.99;70.93
65157;BME280;52745;49.794;18.258;2023-04-27T05:34:03;-16098.06;;;6.01;70.82
65157;BME280;52745;49.794;18.258;2023-04-27T05:36:30;-16099.72;;;6.08;71.08
65157;BME280;52745;49.794;18.258;2023-04-27T05:38:57;-16105.84;;;6.31;70.95
65157;BME280;52745;49.794;18.258;2023-04-27T05:41:24;-16106.13;;;6.32;70.34
65157;BME280;52745;49.794;18.258;2023-04-27T05:43:50;-16111.59;;;6.52;70.03
65157;BME280;52745;49.794;18.258;2023-04-27T05:46:17;-16118.03;;;6.76;70.21
65157;BME280;52745;49.794;18.258;2023-04-27T05:48:43;-16122.81;;;6.94;69.54
65157;BME280;52745;49.794;18.258;2023-04-27T05:51:10;-16126.09;;;7.07;68.28
65157;BME280;52745;49.794;18.258;2023-04-27T05:53:37;-16122.13;;;6.92;67.36
65157;BME280;52745;49.794;18.258;2023-04-27T05:56:04;-16122.53;;;6.93;67.01
65157;BME280;52745;49.794;18.258;2023-04-27T05:58:34;-16126.50;;;7.08;66.78
65157;BME280;52745;49.794;18.258;2023-04-27T06:01:01;-16131.69;;;7.28;66.26
65157;BME280;52745;49.794;18.258;2023-04-27T06:03:29;-16133.31;;;7.34;65.88
65157;BME280;52745;49.794;18.258;2023-04-27T06:05:57;-16136.06;;;7.44;65.30
65157;BME280;52745;49.794;18.258;2023-04-27T06:08:25;-16140.41;;;7.60;64.96
65157;BME280;52745;49.794;18.258;2023-04-27T06:10:52;-16143.69;;;7.73;63.60
65157;BME280;52745;49.794;18.258;2023-04-27T06:13:19;-16148.19;;;7.90;62.89
65157;BME280;52745;49.794;18.258;2023-04-27T06:15:46;-16151.06;;;8.00;63.43
65157;BME280;52745;49.794;18.258;2023-04-27T06:18:13;-16153.81;;;8.11;62.30
65157;BME280;52745;49.794;18.258;2023-04-27T06:20:40;-16149.97;;;7.96;62.56
65157;BME280;52745;49.794;18.258;2023-04-27T06:23:08;-16152.44;;;8.05;63.24
65157;BME280;52745;49.794;18.258;2023-04-27T06:25:34;-16153.53;;;8.09;63.04
65157;BME280;52745;49.794;18.258;2023-04-27T06:28:04;-16153.25;;;8.08;63.84
65157;BME280;52745;49.794;18.258;2023-04-27T06:30:31;-16150.81;;;7.99;66.61
65157;BME280;52745;49.794;18.258;2023-04-27T06:32:57;-16152.56;;;8.06;65.79
65157;BME280;52745;49.794;18.258;2023-04-27T06:35:24;-16146.84;;;7.84;65.68
65157;BME280;52745;49.794;18.258;2023-04-27T06:37:51;-16152.72;;;8.06;63.28
65157;BME280;52745;49.794;18.258;2023-04-27T06:40:18;-16160.34;;;8.35;62.29
65157;BME280;52745;49.794;18.258;2023-04-27T06:42:44;-16161.31;;;8.39;60.15
65157;BME280;52745;49.794;18.258;2023-04-27T06:45:11;-16163.38;;;8.46;61.03
65157;BME280;52745;49.794;18.258;2023-04-27T06:47:37;-16160.91;;;8.37;61.80
65157;BME280;52745;49.794;18.258;2023-04-27T06:50:04;-16158.44;;;8.28;59.05
65157;BME280;52745;49.794;18.258;2023-04-27T06:52:31;-16165.28;;;8.54;59.54
65157;BME280;52745;49.794;18.258;2023-04-27T06:54:59;-16171.00;;;8.75;56.83
65157;BME280;52745;49.794;18.258;2023-04-27T06:57:25;-16175.09;;;8.90;57.72
65157;BME280;52745;49.794;18.258;2023-04-27T06:59:53;-16163.22;;;8.46;54.48
65157;BME280;52745;49.794;18.258;2023-04-27T07:02:19;-16152.56;;;8.06;57.00
65157;BME280;52745;49.794;18.258;2023-04-27T07:04:46;-16159.53;;;8.32;57.45
65157;BME280;52745;49.794;18.258;2023-04-27T07:07:13;-16173.72;;;8.85;56.57
65157;BME280;52745;49.794;18.258;2023-04-27T07:09:40;-16172.09;;;8.79;57.76
65157;BME280;52745;49.794;18.258;2023-04-27T07:12:06;-16174.00;;;8.86;56.59
65157;BME280;52745;49.794;18.258;2023-04-27T07:16:09;-16177.69;;;9.00;60.21
65157;BME280;52745;49.794;18.258;2023-04-27T07:20:13;-16183.97;;;9.24;54.37
65157;BME280;52745;49.794;18.258;2023-04-27T07:24:16;-16189.28;;;9.44;52.73
65157;BME280;52745;49.794;18.258;2023-04-27T07:31:20;-16186.16;;;9.32;53.06
65157;BME280;52745;49.794;18.258;2023-04-27T08:01:17;-16180.81;;;9.12;51.96
65157;BME280;52745;49.794;18.258;2023-04-27T08:03:47;-16195.56;;;9.67;50.38
65157;BME280;52745;49.794;18.258;2023-04-27T08:06:14;-16233.75;;;11.11;47.21
65157;BME280;52745;49.794;18.258;2023-04-27T08:08:41;-16301.03;;;13.64;41.95
65157;BME280;52745;49.794;18.258;2023-04-27T08:11:09;-16365.09;;;16.05;38.70
65157;BME280;52745;49.794;18.258;2023-04-27T08:13:36;-16408.28;;;17.68;33.91
65157;BME280;52745;49.794;18.258;2023-04-27T08:16:03;-16443.16;;;19.00;30.77
65157;BME280;52745;49.794;18.258;2023-04-27T08:18:29;-16463.06;;;19.75;29.33
65157;BME280;52745;49.794;18.258;2023-04-27T08:20:56;-16501.41;;;21.20;28.09
65157;BME280;52745;49.794;18.258;2023-04-27T08:23:26;-16516.56;;;21.78;26.50
65157;BME280;52745;49.794;18.258;2023-04-27T08:25:53;-16544.72;;;22.84;26.95
65157;BME280;52745;49.794;18.258;2023-04-27T08:28:20;-16547.00;;;22.93;24.60
65157;BME280;52745;49.794;18.258;2023-04-27T08:30:48;-16452.09;;;19.34;25.76
65157;BME280;52745;49.794;18.258;2023-04-27T08:33:15;-16401.50;;;17.43;28.96
65157;BME280;52745;49.794;18.258;2023-04-27T08:35:42;-16356.66;;;15.73;33.24
65157;BME280;52745;49.794;18.258;2023-04-27T08:38:08;-16318.31;;;14.29;35.94
65157;BME280;52745;49.794;18.258;2023-04-27T08:40:35;-16286.59;;;13.10;38.47
65157;BME280;52745;49.794;18.258;2023-04-27T08:43:02;-16322.25;;;14.44;37.91
65157;BME280;52745;49.794;18.258;2023-04-27T08:45:29;-16285.50;;;13.05;35.72
65157;BME280;52745;49.794;18.258;2023-04-27T08:47:55;-16265.50;;;12.30;38.33
65157;BME280;52745;49.794;18.258;2023-04-27T08:50:22;-16269.16;;;12.44;37.76
65157;BME280;52745;49.794;18.258;2023-04-27T08:52:49;-16258.28;;;12.03;36.18
65157;BME280;52745;49.794;18.258;2023-04-27T08:55:17;-16257.19;;;11.99;35.35
65157;BME280;52745;49.794;18.258;2023-04-27T08:57:57;-16263.44;;;12.23;35.31
65157;BME280;52745;49.794;18.258;2023-04-27T09:00:25;-16250.38;;;11.73;38.69
65157;BME280;52745;49.794;18.258;2023-04-27T09:02:52;-16236.59;;;11.22;41.43
65157;BME280;52745;49.794;18.258;2023-04-27T09:05:21;-16234.44;;;11.13;42.00
65157;BME280;52745;49.794;18.258;2023-04-27T09:08:02;-16228.28;;;10.90;43.35
65157;BME280;52745;49.794;18.258;2023-04-27T09:10:46;-16223.38;;;10.72;41.95
65157;BME280;52745;49.794;18.258;2023-04-27T09:13:12;-16225.28;;;10.79;44.53
65157;BME280;52745;49.794;18.258;2023-04-27T09:15:41;-16222.03;;;10.67;43.01
65157;BME280;52745;49.794;18.258;2023-04-27T09:18:14;-16225.16;;;10.79;42.79
65157;BME280;52745;49.794;18.258;2023-04-27T09:20:43;-16214.38;;;10.38;43.44
65157;BME280;52745;49.794;18.258;2023-04-27T09:23:10;-16215.47;;;10.42;43.79
65157;BME280;52745;49.794;18.258;2023-04-27T09:25:37;-16217.13;;;10.48;41.69
65157;BME280;52745;49.794;18.258;2023-04-27T09:28:03;-16222.72;;;10.69;42.44
65157;BME280;52745;49.794;18.258;2023-04-27T09:30:30;-16225.28;;;10.79;42.15
65157;BME280;52745;49.794;18.258;2023-04-27T09:32:59;-16237.84;;;11.26;41.56
65157;BME280;52745;49.794;18.258;2023-04-27T09:35:31;-16240.00;;;11.34;41.03
65157;BME280;52745;49.794;18.258;2023-04-27T09:37:59;-16242.59;;;11.44;41.02
65157;BME280;52745;49.794;18.258;2023-04-27T09:40:28;-16254.31;;;11.88;41.74
65157;BME280;52745;49.794;18.258;2023-04-27T09:42:58;-16255.28;;;11.92;38.53
65157;BME280;52745;49.794;18.258;2023-04-27T09:45:27;-16255.69;;;11.93;39.70
65157;BME280;52745;49.794;18.258;2023-04-27T09:47:53;-16246.28;;;11.58;38.41
65157;BME280;52745;49.794;18.258;2023-04-27T09:50:20;-16251.59;;;11.78;39.20
65157;BME280;52745;49.794;18.258;2023-04-27T09:52:47;-16251.59;;;11.78;39.67
65157;BME280;52745;49.794;18.258;2023-04-27T09:55:17;-16257.47;;;12.00;37.38
65157;BME280;52745;49.794;18.258;2023-04-27T10:08:43;-16248.75;;;11.67;40.07
65157;BME280;52745;49.794;18.258;2023-04-27T10:11:15;-16242.59;;;11.44;40.47
65157;BME280;52745;49.794;18.258;2023-04-27T10:13:53;-16240.56;;;11.36;39.96
65157;BME280;52745;49.794;18.258;2023-04-27T10:16:20;-16245.75;;;11.56;39.36
65157;BME280;52745;49.794;18.258;2023-04-27T10:18:52;-16261.53;;;12.15;38.13
65157;BME280;52745;49.794;18.258;2023-04-27T10:21:20;-16263.44;;;12.23;35.28
65157;BME280;52745;49.794;18.258;2023-04-27T10:23:48;-16264.28;;;12.26;36.46
65157;BME280;52745;49.794;18.258;2023-04-27T10:26:26;-16270.41;;;12.49;37.04
65157;BME280;52745;49.794;18.258;2023-04-27T10:29:07;-16274.63;;;12.65;36.14
65157;BME280;52745;49.794;18.258;2023-04-27T10:31:42;-16259.91;;;12.09;37.69
65157;BME280;52745;49.794;18.258;2023-04-27T10:34:10;-16248.31;;;11.66;38.33
65157;BME280;52745;49.794;18.258;2023-04-27T10:36:41;-16229.38;;;10.94;38.28
65157;BME280;52745;49.794;18.258;2023-04-27T10:39:19;-16229.66;;;10.95;39.09
65157;BME280;52745;49.794;18.258;2023-04-27T10:41:53;-16233.75;;;11.11;39.28
65157;BME280;52745;49.794;18.258;2023-04-27T10:44:26;-16242.06;;;11.42;39.52
65157;BME280;52745;49.794;18.258;2023-04-27T10:46:54;-16250.78;;;11.75;37.79
65157;BME280;52745;49.794;18.258;2023-04-27T10:49:22;-16257.88;;;12.01;38.62
65157;BME280;52745;49.794;18.258;2023-04-27T10:51:50;-16274.06;;;12.62;37.00
65157;BME280;52745;49.794;18.258;2023-04-27T10:54:16;-16312.31;;;14.06;34.25
65157;BME280;52745;49.794;18.258;2023-04-27T10:56:44;-16315.44;;;14.18;35.62
65157;BME280;52745;49.794;18.258;2023-04-27T10:59:11;-16318.59;;;14.30;35.20
65157;BME280;52745;49.794;18.258;2023-04-27T11:01:39;-16344.03;;;15.26;33.91
65157;BME280;52745;49.794;18.258;2023-04-27T11:04:05;-16379.91;;;16.61;32.61
65157;BME280;52745;49.794;18.258;2023-04-27T11:06:41;-16347.16;;;15.38;31.64
65157;BME280;52745;49.794;18.258;2023-04-27T11:09:07;-16314.09;;;14.13;32.38
65157;BME280;52745;49.794;18.258;2023-04-27T11:11:36;-16289.06;;;13.19;34.81
65157;BME280;52745;49.794;18.258;2023-04-27T11:14:02;-16294.63;;;13.40;36.43
65157;BME280;52745;49.794;18.258;2023-04-27T11:16:32;-16297.91;;;13.52;33.84
65157;BME280;52745;49.794;18.258;2023-04-27T11:19:05;-16294.50;;;13.39;32.92
65157;BME280;52745;49.794;18.258;2023-04-27T11:21:32;-16293.69;;;13.36;34.37
65157;BME280;52745;49.794;18.258;2023-04-27T11:24:06;-16287.81;;;13.14;35.82
65157;BME280;52745;49.794;18.258;2023-04-27T11:26:33;-16285.38;;;13.05;36.32
65157;BME280;52745;49.794;18.258;2023-04-27T11:29:04;-16301.97;;;13.68;36.01
65157;BME280;52745;49.794;18.258;2023-04-27T11:31:46;-16335.19;;;14.93;36.44
65157;BME280;52745;49.794;18.258;2023-04-27T11:34:15;-16319.25;;;14.33;34.24
65157;BME280;52745;49.794;18.258;2023-04-27T11:36:42;-16296.94;;;13.49;36.34
65157;BME280;52745;49.794;18.258;2023-04-27T11:39:16;-16316.28;;;14.21;33.54
65157;BME280;52745;49.794;18.258;2023-04-27T11:41:44;-16339.41;;;15.08;31.97
65157;BME280;52745;49.794;18.258;2023-04-27T11:44:11;-16356.38;;;15.72;33.02
65157;BME280;52745;49.794;18.258;2023-04-27T11:46:43;-16355.03;;;15.67;33.40
65157;BME280;52745;49.794;18.258;2023-04-27T11:49:11;-16345.09;;;15.30;33.19
65157;BME280;52745;49.794;18.258;2023-04-27T11:51:38;-16360.34;;;15.87;31.88
65157;BME280;52745;49.794;18.258;2023-04-27T11:54:06;-16359.09;;;15.83;32.90
65157;BME280;52745;49.794;18.258;2023-04-27T11:56:34;-16347.56;;;15.39;31.31
65157;BME280;52745;49.794;18.258;2023-04-27T11:59:02;-16336.69;;;14.98;32.20
65157;BME280;52745;49.794;18.258;2023-04-27T12:01:33;-16315.72;;;14.19;35.06
65157;BME280;52745;49.794;18.258;2023-04-27T12:04:00;-16316.81;;;14.23;33.85
65157;BME280;52745;49.794;18.258;2023-04-27T12:06:28;-16317.09;;;14.24;32.56
65157;BME280;52745;49.794;18.258;2023-04-27T12:08:56;-16313.97;;;14.13;32.43
65157;BME280;52745;49.794;18.258;2023-04-27T12:11:25;-16297.22;;;13.50;34.35
65157;BME280;52745;49.794;18.258;2023-04-27T12:13:56;-16293.41;;;13.35;33.79
65157;BME280;52745;49.794;18.258;2023-04-27T12:16:23;-16293.56;;;13.36;33.08
65157;BME280;52745;49.794;18.258;2023-04-27T12:18:50;-16269.84;;;12.47;35.12
65157;BME280;52745;49.794;18.258;2023-04-27T12:21:19;-16258.69;;;12.05;36.16
65157;BME280;52745;49.794;18.258;2023-04-27T12:23:46;-16255.56;;;11.93;37.30
65157;BME280;52745;49.794;18.258;2023-04-27T12:26:14;-16256.91;;;11.98;35.88
65157;BME280;52745;49.794;18.258;2023-04-27T12:28:41;-16258.00;;;12.02;36.60
65157;BME280;52745;49.794;18.258;2023-04-27T12:31:15;-16254.47;;;11.89;35.51
65157;BME280;52745;49.794;18.258;2023-04-27T12:33:44;-16253.63;;;11.86;36.58
65157;BME280;52745;49.794;18.258;2023-04-27T12:36:10;-16259.78;;;12.09;38.63
65157;BME280;52745;49.794;18.258;2023-04-27T12:38:37;-16254.75;;;11.90;37.51
65157;BME280;52745;49.794;18.258;2023-04-27T12:41:04;-16258.53;;;12.04;36.58
65157;BME280;52745;49.794;18.258;2023-04-27T12:43:31;-16265.34;;;12.30;37.24
65157;BME280;52745;49.794;18.258;2023-04-27T12:45:58;-16251.19;;;11.76;38.23
65157;BME280;52745;49.794;18.258;2023-04-27T12:48:25;-16253.78;;;11.86;37.75
65157;BME280;52745;49.794;18.258;2023-04-27T12:50:52;-16255.56;;;11.93;38.00
65157;BME280;52745;49.794;18.258;2023-04-27T12:53:19;-16251.47;;;11.77;37.23
65157;BME280;52745;49.794;18.258;2023-04-27T12:55:48;-16255.69;;;11.93;37.31
65157;BME280;52745;49.794;18.258;2023-04-27T12:58:15;-16262.91;;;12.20;37.51
65157;BME280;52745;49.794;18.258;2023-04-27T13:00:42;-16264.00;;;12.25;36.90
65157;BME280;52745;49.794;18.258;2023-04-27T13:03:10;-16268.34;;;12.41;35.94
65157;BME280;52745;49.794;18.258;2023-04-27T13:05:37;-16271.09;;;12.51;35.90
65157;BME280;52745;49.794;18.258;2023-04-27T13:08:03;-16270.25;;;12.48;35.80
65157;BME280;52745;49.794;18.258;2023-04-27T13:10:31;-16275.31;;;12.67;36.18
65157;BME280;52745;49.794;18.258;2023-04-27T13:12:57;-16274.63;;;12.65;37.22
65157;BME280;52745;49.794;18.258;2023-04-27T13:15:25;-16269.16;;;12.44;36.59
65157;BME280;52745;49.794;18.258;2023-04-27T13:17:52;-16268.09;;;12.40;37.41
65157;BME280;52745;49.794;18.258;2023-04-27T13:20:19;-16265.34;;;12.30;37.80
65157;BME280;52745;49.794;18.258;2023-04-27T13:22:46;-16259.09;;;12.06;36.80
65157;BME280;52745;49.794;18.258;2023-04-27T13:25:13;-16267.41;;;12.37;37.33
65157;BME280;52745;49.794;18.258;2023-04-27T13:27:42;-16279.25;;;12.82;37.67
65157;BME280;52745;49.794;18.258;2023-04-27T13:30:09;-16280.88;;;12.88;35.87
65157;BME280;52745;49.794;18.258;2023-04-27T13:32:36;-16285.38;;;13.05;35.65
65157;BME280;52745;49.794;18.258;2023-04-27T13:35:02;-16284.28;;;13.01;36.88
65157;BME280;52745;49.794;18.258;2023-04-27T13:37:30;-16282.94;;;12.96;36.72